createdAt,value
2024-02-29T00:00:59.891Z,743.00
2024-02-29T00:01:59.953Z,735.00
2024-02-29T00:02:59.900Z,741.00
2024-02-29T00:03:59.988Z,734.00
2024-02-29T00:05:00.006Z,738.00
2024-02-29T00:06:00.080Z,731.00
2024-02-29T00:07:00.177Z,731.00
2024-02-29T00:08:00.165Z,725.00
2024-02-29T00:09:00.235Z,731.00
2024-02-29T00:10:00.332Z,729.00
2024-02-29T00:11:00.364Z,740.00
2024-02-29T00:12:00.429Z,734.00
2024-02-29T00:13:00.477Z,725.00
2024-02-29T00:14:00.488Z,727.00
2024-02-29T00:15:00.543Z,724.00
2024-02-29T00:16:00.574Z,720.00
2024-02-29T00:17:00.685Z,722.00
2024-02-29T00:18:00.738Z,723.00
2024-02-29T00:19:00.747Z,723.00
2024-02-29T00:20:00.800Z,714.00
2024-02-29T00:21:00.828Z,720.00
2024-02-29T00:22:00.891Z,710.00
2024-02-29T00:23:00.939Z,721.00
2024-02-29T00:24:00.991Z,715.00
2024-02-29T00:25:01.127Z,716.00
2024-02-29T00:26:01.069Z,716.00
2024-02-29T00:27:01.157Z,712.00
2024-02-29T00:28:01.259Z,715.00
2024-02-29T00:29:01.242Z,709.00
2024-02-29T00:30:01.284Z,710.00
2024-02-29T00:31:01.378Z,704.00
2024-02-29T00:32:01.399Z,703.00
2024-02-29T00:33:01.477Z,709.00
2024-02-29T00:34:01.512Z,715.00
2024-02-29T00:35:01.538Z,712.00
2024-02-29T00:36:09.233Z,701.00
2024-02-29T00:37:02.622Z,702.00
2024-02-29T00:38:01.601Z,702.00
2024-02-29T00:39:06.426Z,704.00
2024-02-29T00:40:02.643Z,702.00
2024-02-29T00:41:01.609Z,703.00
2024-02-29T00:42:01.601Z,705.00
2024-02-29T00:43:01.662Z,704.00
2024-02-29T00:44:01.639Z,706.00
2024-02-29T00:45:01.638Z,712.00
2024-02-29T00:46:01.674Z,703.00
2024-02-29T00:47:01.625Z,700.00
2024-02-29T00:48:01.663Z,694.00
2024-02-29T00:49:01.684Z,696.00
2024-02-29T00:50:01.641Z,696.00
2024-02-29T00:51:01.702Z,699.00
2024-02-29T00:52:01.732Z,693.00
2024-02-29T00:53:01.791Z,692.00
2024-02-29T00:54:01.938Z,700.00
2024-02-29T00:55:01.936Z,691.00
2024-02-29T00:56:01.960Z,686.00
2024-02-29T00:57:02.091Z,684.00
2024-02-29T00:58:02.123Z,687.00
2024-02-29T00:59:02.144Z,685.00
2024-02-29T01:00:02.177Z,683.00
2024-02-29T01:01:02.373Z,683.00
2024-02-29T01:02:02.923Z,689.00
2024-02-29T01:03:02.378Z,684.00
2024-02-29T01:04:02.503Z,686.00
2024-02-29T01:05:02.477Z,682.00
2024-02-29T01:06:02.558Z,681.00
2024-02-29T01:07:02.709Z,683.00
2024-02-29T01:08:02.674Z,676.00
2024-02-29T01:09:02.719Z,679.00
2024-02-29T01:10:02.864Z,682.00
2024-02-29T01:11:02.887Z,670.00
2024-02-29T01:12:02.922Z,669.00
2024-02-29T01:13:03.007Z,680.00
2024-02-29T01:14:13.097Z,672.00
2024-02-29T01:15:03.031Z,673.00
2024-02-29T01:16:03.202Z,676.00
2024-02-29T01:17:03.031Z,677.00
2024-02-29T01:18:03.064Z,684.00
2024-02-29T01:19:03.087Z,679.00
2024-02-29T01:20:03.047Z,678.00
2024-02-29T01:21:03.040Z,683.00
2024-02-29T01:22:03.071Z,676.00
2024-02-29T01:23:03.051Z,676.00
2024-02-29T01:24:03.064Z,672.00
2024-02-29T01:25:03.127Z,667.00
2024-02-29T01:26:03.059Z,672.00
2024-02-29T01:27:03.063Z,668.00
2024-02-29T01:28:03.140Z,664.00
2024-02-29T01:29:03.062Z,666.00
2024-02-29T01:30:03.074Z,665.00
2024-02-29T01:31:03.237Z,665.00
2024-02-29T01:32:12.087Z,664.00
2024-02-29T01:33:04.101Z,664.00
2024-02-29T01:34:03.130Z,665.00
2024-02-29T01:35:03.074Z,665.00
2024-02-29T01:36:03.059Z,665.00
2024-02-29T01:37:03.103Z,666.00
2024-02-29T01:38:03.081Z,669.00
2024-02-29T01:39:03.093Z,668.00
2024-02-29T01:40:03.206Z,662.00
2024-02-29T01:41:03.069Z,662.00
2024-02-29T01:42:03.085Z,662.00
2024-02-29T01:43:03.190Z,662.00
2024-02-29T01:44:03.231Z,663.00
2024-02-29T01:45:03.284Z,663.00
2024-02-29T01:46:03.360Z,662.00
2024-02-29T01:47:03.402Z,663.00
2024-02-29T01:48:03.515Z,662.00
2024-02-29T01:49:03.554Z,659.00
2024-02-29T01:50:03.818Z,659.00
2024-02-29T01:51:03.672Z,656.00
2024-02-29T01:52:03.781Z,662.00
2024-02-29T01:53:03.811Z,662.00
2024-02-29T01:54:03.886Z,659.00
2024-02-29T01:55:04.099Z,659.00
2024-02-29T01:56:04.025Z,657.00
2024-02-29T01:57:04.088Z,656.00
2024-02-29T01:58:04.260Z,657.00
2024-02-29T01:59:04.272Z,656.00
2024-02-29T02:00:04.342Z,660.00
2024-02-29T02:01:04.433Z,656.00
2024-02-29T02:02:04.428Z,660.00
2024-02-29T02:03:04.472Z,654.00
2024-02-29T02:04:06.394Z,654.00
2024-02-29T02:05:04.617Z,656.00
2024-02-29T02:06:04.664Z,654.00
2024-02-29T02:07:04.759Z,653.00
2024-02-29T02:08:04.815Z,653.00
2024-02-29T02:09:04.888Z,650.00
2024-02-29T02:10:04.995Z,653.00
2024-02-29T02:11:05.042Z,654.00
2024-02-29T02:12:05.073Z,652.00
2024-02-29T02:13:05.216Z,652.00
2024-02-29T02:14:05.221Z,649.00
2024-02-29T02:15:05.265Z,650.00
2024-02-29T02:16:05.390Z,648.00
2024-02-29T02:17:05.413Z,651.00
2024-02-29T02:18:05.523Z,648.00
2024-02-29T02:19:05.615Z,651.00
2024-02-29T02:20:05.639Z,654.00
2024-02-29T02:21:05.695Z,646.00
2024-02-29T02:22:05.984Z,651.00
2024-02-29T02:23:05.828Z,649.00
2024-02-29T02:24:06.359Z,652.00
2024-02-29T02:25:06.038Z,645.00
2024-02-29T02:26:06.058Z,649.00
2024-02-29T02:27:06.126Z,650.00
2024-02-29T02:28:06.289Z,645.00
2024-02-29T02:29:06.404Z,646.00
2024-02-29T02:30:06.346Z,645.00
2024-02-29T02:31:06.430Z,647.00
2024-02-29T02:32:06.471Z,649.00
2024-02-29T02:33:06.608Z,648.00
2024-02-29T02:34:12.304Z,646.00
2024-02-29T02:35:06.608Z,646.00
2024-02-29T02:36:06.639Z,646.00
2024-02-29T02:37:06.744Z,646.00
2024-02-29T02:38:06.623Z,646.00
2024-02-29T02:39:27.630Z,644.00
2024-02-29T02:40:06.754Z,646.00
2024-02-29T02:41:06.620Z,648.00
2024-02-29T02:42:06.638Z,650.00
2024-02-29T02:43:06.684Z,652.00
2024-02-29T02:44:28.866Z,654.00
2024-02-29T02:45:06.624Z,646.00
2024-02-29T02:46:06.733Z,649.00
2024-02-29T02:47:06.643Z,653.00
2024-02-29T02:48:06.702Z,656.00
2024-02-29T02:49:06.802Z,656.00
2024-02-29T02:50:06.746Z,656.00
2024-02-29T02:51:06.659Z,653.00
2024-02-29T02:52:06.722Z,651.00
2024-02-29T02:53:06.654Z,648.00
2024-02-29T02:54:06.666Z,649.00
2024-02-29T02:55:06.808Z,648.00
2024-02-29T02:56:06.666Z,647.00
2024-02-29T02:57:06.669Z,642.00
2024-02-29T02:58:06.722Z,645.00
2024-02-29T02:59:06.679Z,644.00
2024-02-29T03:00:06.688Z,645.00
2024-02-29T03:01:06.723Z,647.00
2024-02-29T03:02:06.746Z,643.00
2024-02-29T03:03:06.683Z,639.00
2024-02-29T03:04:06.781Z,641.00
2024-02-29T03:05:06.769Z,641.00
2024-02-29T03:06:06.835Z,637.00
2024-02-29T03:07:06.955Z,639.00
2024-02-29T03:08:07.039Z,640.00
2024-02-29T03:09:07.013Z,638.00
2024-02-29T03:10:07.137Z,635.00
2024-02-29T03:11:07.236Z,634.00
2024-02-29T03:12:07.222Z,634.00
2024-02-29T03:13:07.362Z,630.00
2024-02-29T03:14:12.182Z,628.00
2024-02-29T03:15:07.300Z,628.00
2024-02-29T03:16:07.370Z,628.00
2024-02-29T03:17:07.305Z,623.00
2024-02-29T03:18:07.386Z,623.00
2024-02-29T03:19:07.351Z,623.00
2024-02-29T03:20:07.367Z,620.00
2024-02-29T03:21:07.401Z,615.00
2024-02-29T03:22:07.465Z,614.00
2024-02-29T03:23:07.382Z,616.00
2024-02-29T03:24:07.336Z,613.00
2024-02-29T03:25:07.366Z,611.00
2024-02-29T03:26:07.346Z,611.00
2024-02-29T03:27:07.348Z,610.00
2024-02-29T03:28:07.472Z,609.00
2024-02-29T03:29:07.321Z,608.00
2024-02-29T03:30:07.348Z,605.00
2024-02-29T03:31:07.381Z,607.00
2024-02-29T03:32:07.346Z,606.00
2024-02-29T03:33:07.384Z,602.00
2024-02-29T03:34:07.441Z,601.00
2024-02-29T03:35:07.365Z,600.00
2024-02-29T03:36:07.395Z,602.00
2024-02-29T03:37:07.445Z,601.00
2024-02-29T03:38:07.406Z,601.00
2024-02-29T03:39:07.397Z,602.00
2024-02-29T03:40:07.496Z,602.00
2024-02-29T03:41:07.412Z,601.00
2024-02-29T03:42:07.415Z,601.00
2024-02-29T03:43:07.478Z,603.00
2024-02-29T03:44:07.466Z,602.00
2024-02-29T03:45:07.435Z,600.00
2024-02-29T03:46:07.520Z,601.00
2024-02-29T03:47:07.439Z,602.00
2024-02-29T03:48:07.533Z,601.00
2024-02-29T03:49:07.521Z,601.00
2024-02-29T03:50:07.528Z,601.00
2024-02-29T03:51:07.543Z,600.00
2024-02-29T03:52:07.581Z,601.00
2024-02-29T03:53:07.614Z,600.00
2024-02-29T03:54:07.636Z,600.00
2024-02-29T03:55:07.732Z,603.00
2024-02-29T03:56:07.757Z,601.00
2024-02-29T03:57:07.780Z,600.00
2024-02-29T03:58:07.961Z,602.00
2024-02-29T03:59:07.930Z,601.00
2024-02-29T04:00:08.099Z,600.00
2024-02-29T04:01:08.313Z,601.00
2024-02-29T04:02:08.114Z,601.00
2024-02-29T04:03:08.195Z,603.00
2024-02-29T04:04:08.318Z,600.00
2024-02-29T04:05:08.332Z,602.00
2024-02-29T04:06:08.414Z,603.00
2024-02-29T04:07:08.662Z,602.00
2024-02-29T04:08:08.547Z,599.00
2024-02-29T04:09:13.682Z,604.00
2024-02-29T04:10:08.670Z,604.00
2024-02-29T04:11:08.692Z,604.00
2024-02-29T04:12:08.637Z,604.00
2024-02-29T04:13:08.752Z,603.00
2024-02-29T04:14:08.641Z,600.00
2024-02-29T04:15:08.633Z,600.00
2024-02-29T04:16:08.714Z,602.00
2024-02-29T04:17:08.803Z,601.00
2024-02-29T04:18:08.892Z,602.00
2024-02-29T04:19:08.996Z,605.00
2024-02-29T04:20:08.978Z,603.00
2024-02-29T04:21:09.039Z,604.00
2024-02-29T04:22:09.134Z,601.00
2024-02-29T04:23:09.167Z,601.00
2024-02-29T04:24:09.225Z,603.00
2024-02-29T04:25:09.314Z,605.00
2024-02-29T04:26:09.344Z,606.00
2024-02-29T04:27:09.434Z,605.00
2024-02-29T04:28:09.532Z,603.00
2024-02-29T04:29:09.542Z,604.00
2024-02-29T04:30:09.609Z,604.00
2024-02-29T04:31:09.734Z,605.00
2024-02-29T04:32:09.720Z,605.00
2024-02-29T04:33:09.786Z,604.00
2024-02-29T04:34:09.888Z,604.00
2024-02-29T04:35:09.968Z,601.00
2024-02-29T04:36:09.956Z,602.00
2024-02-29T04:37:10.112Z,601.00
2024-02-29T04:38:10.026Z,604.00
2024-02-29T04:39:10.089Z,602.00
2024-02-29T04:40:11.517Z,604.00
2024-02-29T04:41:10.206Z,603.00
2024-02-29T04:42:10.243Z,604.00
2024-02-29T04:43:10.338Z,602.00
2024-02-29T04:44:10.350Z,605.00
2024-02-29T04:45:10.435Z,604.00
2024-02-29T04:46:10.533Z,605.00
2024-02-29T04:47:17.856Z,600.00
2024-02-29T04:48:17.873Z,600.00
2024-02-29T04:49:17.910Z,600.00
2024-02-29T04:50:17.849Z,600.00
2024-02-29T04:51:17.859Z,600.00
2024-02-29T04:52:17.866Z,602.00
2024-02-29T04:53:17.864Z,601.00
2024-02-29T04:54:38.888Z,600.00
2024-02-29T04:55:17.917Z,600.00
2024-02-29T04:56:17.873Z,602.00
2024-02-29T04:57:17.868Z,604.00
2024-02-29T04:58:17.936Z,607.00
2024-02-29T04:59:21.700Z,607.00
2024-02-29T05:00:17.929Z,600.00
2024-02-29T05:01:18.003Z,601.00
2024-02-29T05:02:17.987Z,600.00
2024-02-29T05:03:18.468Z,600.00
2024-02-29T05:04:17.908Z,599.00
2024-02-29T05:05:21.728Z,602.00
2024-02-29T05:06:17.887Z,600.00
2024-02-29T05:07:17.967Z,603.00
2024-02-29T05:08:17.901Z,600.00
2024-02-29T05:09:17.885Z,596.00
2024-02-29T05:10:18.003Z,596.00
2024-02-29T05:11:17.918Z,603.00
2024-02-29T05:12:17.894Z,605.00
2024-02-29T05:13:17.908Z,607.00
2024-02-29T05:14:17.882Z,603.00
2024-02-29T05:15:17.905Z,600.00
2024-02-29T05:16:17.939Z,606.00
2024-02-29T05:17:17.902Z,606.00
2024-02-29T05:18:17.968Z,601.00
2024-02-29T05:19:17.985Z,610.00
2024-02-29T05:20:17.936Z,607.00
2024-02-29T05:21:17.901Z,604.00
2024-02-29T05:22:17.932Z,607.00
2024-02-29T05:23:17.906Z,607.00
2024-02-29T05:24:17.909Z,601.00
2024-02-29T05:25:18.074Z,603.00
2024-02-29T05:26:17.908Z,607.00
2024-02-29T05:27:17.903Z,605.00
2024-02-29T05:28:17.975Z,604.00
2024-02-29T05:29:17.955Z,603.00
2024-02-29T05:30:17.921Z,609.00
2024-02-29T05:31:17.973Z,606.00
2024-02-29T05:32:19.070Z,600.00
2024-02-29T05:33:18.042Z,601.00
2024-02-29T05:34:18.088Z,603.00
2024-02-29T05:35:17.949Z,609.00
2024-02-29T05:36:17.950Z,608.00
2024-02-29T05:37:18.025Z,601.00
2024-02-29T05:38:17.938Z,607.00
2024-02-29T05:39:17.948Z,605.00
2024-02-29T05:40:18.019Z,606.00
2024-02-29T05:41:17.965Z,607.00
2024-02-29T05:42:17.943Z,606.00
2024-02-29T05:43:17.977Z,607.00
2024-02-29T05:44:17.942Z,604.00
2024-02-29T05:45:17.958Z,603.00
2024-02-29T05:46:18.035Z,609.00
2024-02-29T05:47:17.953Z,602.00
2024-02-29T05:48:17.959Z,608.00
2024-02-29T05:49:18.026Z,605.00
2024-02-29T05:50:17.969Z,607.00
2024-02-29T05:51:17.952Z,607.00
2024-02-29T05:52:17.994Z,609.00
2024-02-29T05:53:17.961Z,605.00
2024-02-29T05:54:17.987Z,603.00
2024-02-29T05:55:18.165Z,607.00
2024-02-29T05:56:18.081Z,602.00
2024-02-29T05:57:18.112Z,604.00
2024-02-29T05:58:18.167Z,603.00
2024-02-29T05:59:18.146Z,602.00
2024-02-29T06:00:18.161Z,601.00
2024-02-29T06:01:18.257Z,602.00
2024-02-29T06:02:18.257Z,607.00
2024-02-29T06:03:18.277Z,608.00
2024-02-29T06:04:18.452Z,600.00
2024-02-29T06:05:18.348Z,603.00
2024-02-29T06:06:18.368Z,602.00
2024-02-29T06:07:18.443Z,606.00
2024-02-29T06:08:18.445Z,606.00
2024-02-29T06:09:18.478Z,607.00
2024-02-29T06:10:18.579Z,605.00
2024-02-29T06:11:18.561Z,606.00
2024-02-29T06:12:18.563Z,604.00
2024-02-29T06:13:18.687Z,602.00
2024-02-29T06:14:18.644Z,604.00
2024-02-29T06:15:18.637Z,609.00
2024-02-29T06:16:18.684Z,605.00
2024-02-29T06:17:18.712Z,609.00
2024-02-29T06:18:18.751Z,604.00
2024-02-29T06:19:18.873Z,602.00
2024-02-29T06:20:18.777Z,604.00
2024-02-29T06:21:18.777Z,604.00
2024-02-29T06:22:18.839Z,605.00
2024-02-29T06:23:18.816Z,601.00
2024-02-29T06:24:18.822Z,603.00
2024-02-29T06:25:19.281Z,606.00
2024-02-29T06:26:18.901Z,607.00
2024-02-29T06:27:18.886Z,603.00
2024-02-29T06:28:22.925Z,609.00
2024-02-29T06:29:20.005Z,610.00
2024-02-29T06:30:18.930Z,603.00
2024-02-29T06:31:19.106Z,608.00
2024-02-29T06:32:18.934Z,605.00
2024-02-29T06:33:18.954Z,588.00
2024-02-29T06:34:18.985Z,598.00
2024-02-29T06:35:18.952Z,602.00
2024-02-29T06:36:18.924Z,600.00
2024-02-29T06:37:18.970Z,600.00
2024-02-29T06:38:18.921Z,600.00
2024-02-29T06:39:18.925Z,600.00
2024-02-29T06:40:19.022Z,600.00
2024-02-29T06:41:18.944Z,601.00
2024-02-29T06:42:18.948Z,601.00
2024-02-29T06:43:19.218Z,600.00
2024-02-29T06:44:18.946Z,602.00
2024-02-29T06:45:18.982Z,600.00
2024-02-29T06:46:19.065Z,602.00
2024-02-29T06:47:19.004Z,603.00
2024-02-29T06:48:19.077Z,606.00
2024-02-29T06:49:19.128Z,603.00
2024-02-29T06:50:19.164Z,602.00
2024-02-29T06:51:19.168Z,610.00
2024-02-29T06:52:19.353Z,615.00
2024-02-29T06:53:19.222Z,623.00
2024-02-29T06:54:19.297Z,628.00
2024-02-29T06:55:19.454Z,626.00
2024-02-29T06:56:19.414Z,631.00
2024-02-29T06:57:19.446Z,635.00
2024-02-29T06:58:19.566Z,636.00
2024-02-29T06:59:19.486Z,634.00
2024-02-29T07:00:19.513Z,640.00
2024-02-29T07:01:19.552Z,642.00
2024-02-29T07:02:19.526Z,646.00
2024-02-29T07:03:19.535Z,648.00
2024-02-29T07:04:19.744Z,646.00
2024-02-29T07:05:19.703Z,643.00
2024-02-29T07:06:19.670Z,644.00
2024-02-29T07:07:19.720Z,637.00
2024-02-29T07:08:19.744Z,629.00
2024-02-29T07:09:19.773Z,622.00
2024-02-29T07:10:19.899Z,613.00
2024-02-29T07:11:19.830Z,611.00
2024-02-29T07:12:19.924Z,609.00
2024-02-29T07:13:20.014Z,610.00
2024-02-29T07:14:19.983Z,609.00
2024-02-29T07:15:20.022Z,607.00
2024-02-29T07:16:20.047Z,613.00
2024-02-29T07:17:20.037Z,610.00
2024-02-29T07:18:20.066Z,614.00
2024-02-29T07:19:20.101Z,621.00
2024-02-29T07:20:20.130Z,621.00
2024-02-29T07:21:20.177Z,626.00
2024-02-29T07:22:20.322Z,634.00
2024-02-29T07:23:20.338Z,641.00
2024-02-29T07:24:20.383Z,652.00
2024-02-29T07:25:20.487Z,655.00
2024-02-29T07:26:20.496Z,661.00
2024-02-29T07:27:20.527Z,665.00
2024-02-29T07:28:20.639Z,678.00
2024-02-29T07:29:20.590Z,696.00
2024-02-29T07:30:20.700Z,707.00
2024-02-29T07:31:20.695Z,722.00
2024-02-29T07:32:20.703Z,733.00
2024-02-29T07:33:20.791Z,753.00
2024-02-29T07:34:20.763Z,770.00
2024-02-29T07:35:20.703Z,788.00
2024-02-29T07:36:20.745Z,807.00
2024-02-29T07:37:20.915Z,826.00
2024-02-29T07:38:20.753Z,846.00
2024-02-29T07:39:20.770Z,872.00
2024-02-29T07:40:20.926Z,904.00
2024-02-29T07:41:20.768Z,919.00
2024-02-29T07:42:20.797Z,922.00
2024-02-29T07:43:20.945Z,939.00
2024-02-29T07:44:20.866Z,958.00
2024-02-29T07:45:21.399Z,976.00
2024-02-29T07:46:21.022Z,997.00
2024-02-29T07:47:21.070Z,1020.00
2024-02-29T07:48:21.161Z,1034.00
2024-02-29T07:49:21.273Z,1053.00
2024-02-29T07:50:21.272Z,1062.00
2024-02-29T07:51:21.340Z,1082.00
2024-02-29T07:52:21.552Z,1099.00
2024-02-29T07:53:21.513Z,1112.00
2024-02-29T07:54:21.601Z,1143.00
2024-02-29T07:55:21.706Z,1163.00
2024-02-29T07:56:21.732Z,1176.00
2024-02-29T07:57:21.720Z,1213.00
2024-02-29T07:58:21.873Z,1209.00
2024-02-29T07:59:21.820Z,1212.00
2024-02-29T08:00:21.882Z,1232.00
2024-02-29T08:01:22.019Z,1248.00
2024-02-29T08:02:24.684Z,1262.00
2024-02-29T08:03:21.997Z,1282.00
2024-02-29T08:04:22.048Z,1298.00
2024-02-29T08:05:22.004Z,1304.00
2024-02-29T08:06:21.995Z,1321.00
2024-02-29T08:07:22.065Z,1324.00
2024-02-29T08:08:22.009Z,1342.00
2024-02-29T08:09:22.002Z,1358.00
2024-02-29T08:10:22.095Z,1376.00
2024-02-29T08:11:22.106Z,1363.00
2024-02-29T08:12:22.003Z,1381.00
2024-02-29T08:13:22.023Z,1391.00
2024-02-29T08:14:22.038Z,1421.00
2024-02-29T08:15:22.026Z,1431.00
2024-02-29T08:16:22.021Z,1421.00
2024-02-29T08:17:22.013Z,1431.00
2024-02-29T08:18:22.019Z,1440.00
2024-02-29T08:19:22.089Z,1455.00
2024-02-29T08:20:22.034Z,1454.00
2024-02-29T08:21:22.016Z,1468.00
2024-02-29T08:22:22.038Z,1470.00
2024-02-29T08:23:22.022Z,1498.00
2024-02-29T08:24:22.060Z,1495.00
2024-02-29T08:25:22.050Z,1492.00
2024-02-29T08:26:22.014Z,1513.00
2024-02-29T08:27:22.019Z,1523.00
2024-02-29T08:28:22.099Z,1535.00
2024-02-29T08:29:22.014Z,1543.00
2024-02-29T08:30:22.042Z,1559.00
2024-02-29T08:31:22.080Z,1562.00
2024-02-29T08:32:22.060Z,1576.00
2024-02-29T08:33:22.083Z,1587.00
2024-02-29T08:34:22.126Z,1592.00
2024-02-29T08:35:22.047Z,1612.00
2024-02-29T08:36:22.039Z,1606.00
2024-02-29T08:37:22.117Z,1631.00
2024-02-29T08:38:22.051Z,1626.00
2024-02-29T08:39:22.037Z,1637.00
2024-02-29T08:40:22.137Z,1635.00
2024-02-29T08:41:22.034Z,1646.00
2024-02-29T08:42:22.045Z,1651.00
2024-02-29T08:43:22.082Z,1664.00
2024-02-29T08:44:22.053Z,1676.00
2024-02-29T08:45:23.015Z,1678.00
2024-02-29T08:46:22.143Z,1688.00
2024-02-29T08:47:22.053Z,1696.00
2024-02-29T08:48:22.063Z,1695.00
2024-02-29T08:49:22.157Z,1705.00
2024-02-29T08:50:22.074Z,1708.00
2024-02-29T08:51:22.081Z,1697.00
2024-02-29T08:52:22.107Z,1696.00
2024-02-29T08:53:22.065Z,1599.00
2024-02-29T08:54:22.062Z,1420.00
2024-02-29T08:55:22.196Z,1291.00
2024-02-29T08:56:22.068Z,1196.00
2024-02-29T08:57:22.078Z,1088.00
2024-02-29T08:58:22.240Z,1017.00
2024-02-29T08:59:22.054Z,967.00
2024-02-29T09:00:22.084Z,1084.00
2024-02-29T09:01:22.088Z,1162.00
2024-02-29T09:02:22.063Z,1204.00
2024-02-29T09:03:22.065Z,1196.00
2024-02-29T09:04:22.101Z,1207.00
2024-02-29T09:05:22.102Z,1207.00
2024-02-29T09:06:22.073Z,1200.00
2024-02-29T09:07:22.129Z,1183.00
2024-02-29T09:08:22.966Z,1187.00
2024-02-29T09:09:22.062Z,1184.00
2024-02-29T09:10:22.111Z,1179.00
2024-02-29T09:11:22.140Z,1181.00
2024-02-29T09:12:22.098Z,1168.00
2024-02-29T09:14:22.101Z,1169.00
2024-02-29T09:15:22.080Z,1170.00
2024-02-29T09:16:22.162Z,1167.00
2024-02-29T09:17:22.097Z,1158.00
2024-02-29T09:18:22.107Z,1158.00
2024-02-29T09:19:22.210Z,1162.00
2024-02-29T09:20:22.117Z,1163.00
2024-02-29T09:21:22.081Z,1166.00
2024-02-29T09:22:22.166Z,1164.00
2024-02-29T09:23:22.089Z,1156.00
2024-02-29T09:24:22.096Z,1176.00
2024-02-29T09:25:22.233Z,1164.00
2024-02-29T09:26:22.109Z,1160.00
2024-02-29T09:27:22.116Z,1170.00
2024-02-29T09:28:22.246Z,1186.00
2024-02-29T09:29:24.142Z,1178.00
2024-02-29T09:30:22.139Z,1179.00
2024-02-29T09:31:22.337Z,1181.00
2024-02-29T09:32:22.106Z,1186.00
2024-02-29T09:33:22.099Z,1194.00
2024-02-29T09:34:22.231Z,1194.00
2024-02-29T09:35:22.127Z,1203.00
2024-02-29T09:36:22.121Z,1199.00
2024-02-29T09:37:22.130Z,1205.00
2024-02-29T09:38:22.128Z,1217.00
2024-02-29T09:39:22.122Z,1219.00
2024-02-29T09:40:22.454Z,1222.00
2024-02-29T09:41:32.728Z,1221.00
2024-02-29T09:42:23.160Z,1222.00
2024-02-29T09:43:22.223Z,1226.00
2024-02-29T09:44:22.125Z,1232.00
2024-02-29T09:45:23.746Z,1250.00
2024-02-29T09:46:22.154Z,1265.00
2024-02-29T09:47:22.156Z,1269.00
2024-02-29T09:48:22.154Z,1270.00
2024-02-29T09:49:22.200Z,1280.00
2024-02-29T09:50:22.170Z,1275.00
2024-02-29T09:51:22.136Z,1275.00
2024-02-29T09:52:22.172Z,1284.00
2024-02-29T09:53:22.147Z,1286.00
2024-02-29T09:54:22.157Z,1285.00
2024-02-29T09:55:22.192Z,1296.00
2024-02-29T09:56:22.159Z,1294.00
2024-02-29T09:57:22.201Z,1287.00
2024-02-29T09:58:22.306Z,1302.00
2024-02-29T09:59:22.171Z,1307.00
2024-02-29T10:00:22.191Z,1311.00
2024-02-29T10:01:22.257Z,1319.00
2024-02-29T10:02:22.211Z,1324.00
2024-02-29T10:03:22.219Z,1323.00
2024-02-29T10:04:22.261Z,1352.00
2024-02-29T10:05:22.181Z,1346.00
2024-02-29T10:06:22.164Z,1379.00
2024-02-29T10:07:22.238Z,1403.00
2024-02-29T10:08:22.166Z,1410.00
2024-02-29T10:09:22.178Z,1408.00
2024-02-29T10:10:22.369Z,1420.00
2024-02-29T10:11:22.291Z,1442.00
2024-02-29T10:12:22.228Z,1445.00
2024-02-29T10:13:22.333Z,1461.00
2024-02-29T10:14:22.230Z,1474.00
2024-02-29T10:15:22.179Z,1491.00
2024-02-29T10:16:22.745Z,1495.00
2024-02-29T10:17:22.194Z,1512.00
2024-02-29T10:18:22.251Z,1522.00
2024-02-29T10:19:22.304Z,1521.00
2024-02-29T10:20:22.208Z,1562.00
2024-02-29T10:21:22.193Z,1599.00
2024-02-29T10:22:22.259Z,1603.00
2024-02-29T10:23:22.188Z,1630.00
2024-02-29T10:24:22.198Z,1664.00
2024-02-29T10:25:22.340Z,1680.00
2024-02-29T10:26:22.203Z,1696.00
2024-02-29T10:27:22.186Z,1723.00
2024-02-29T10:28:22.259Z,1736.00
2024-02-29T10:29:23.858Z,1724.00
2024-02-29T10:30:22.208Z,1744.00
2024-02-29T10:31:22.251Z,1752.00
2024-02-29T10:32:22.241Z,1762.00
2024-02-29T10:33:22.264Z,1775.00
2024-02-29T10:34:22.399Z,1788.00
2024-02-29T10:35:22.221Z,1799.00
2024-02-29T10:36:22.212Z,1812.00
2024-02-29T10:37:22.323Z,1845.00
2024-02-29T10:38:22.250Z,1870.00
2024-02-29T10:39:22.226Z,1893.00
2024-02-29T10:40:22.347Z,1892.00
2024-02-29T10:41:22.222Z,1908.00
2024-02-29T10:42:22.243Z,1905.00
2024-02-29T10:43:22.330Z,1931.00
2024-02-29T10:44:22.230Z,1925.00
2024-02-29T10:45:25.053Z,1930.00
2024-02-29T10:46:22.344Z,1930.00
2024-02-29T10:47:22.236Z,1753.00
2024-02-29T10:48:22.243Z,1617.00
2024-02-29T10:49:22.307Z,1675.00
2024-02-29T10:50:22.243Z,1758.00
2024-02-29T10:51:24.516Z,1751.00
2024-02-29T10:52:22.285Z,1752.00
2024-02-29T10:53:22.244Z,1755.00
2024-02-29T10:54:22.273Z,1767.00
2024-02-29T10:55:22.354Z,1794.00
2024-02-29T10:56:22.273Z,1839.00
2024-02-29T10:57:22.242Z,1860.00
2024-02-29T10:58:22.336Z,1871.00
2024-02-29T10:59:22.272Z,1889.00
2024-02-29T11:00:22.258Z,1897.00
2024-02-29T11:01:22.375Z,1910.00
2024-02-29T11:02:22.257Z,1915.00
2024-02-29T11:03:22.259Z,1927.00
2024-02-29T11:04:22.292Z,1937.00
2024-02-29T11:05:22.263Z,1941.00
2024-02-29T11:06:22.244Z,1958.00
2024-02-29T11:07:22.360Z,1969.00
2024-02-29T11:08:22.252Z,1969.00
2024-02-29T11:09:25.538Z,1985.00
2024-02-29T11:10:23.398Z,1985.00
2024-02-29T11:11:22.336Z,1988.00
2024-02-29T11:12:22.262Z,1996.00
2024-02-29T11:13:22.383Z,2014.00
2024-02-29T11:14:22.301Z,2028.00
2024-02-29T11:15:23.489Z,2044.00
2024-02-29T11:16:22.307Z,2044.00
2024-02-29T11:17:22.274Z,2053.00
2024-02-29T11:18:22.268Z,2059.00
2024-02-29T11:19:22.349Z,2058.00
2024-02-29T11:20:22.330Z,2063.00
2024-02-29T11:21:22.276Z,2066.00
2024-02-29T11:22:22.350Z,2071.00
2024-02-29T11:23:22.281Z,2064.00
2024-02-29T11:24:22.393Z,2072.00
2024-02-29T11:25:22.518Z,2063.00
2024-02-29T11:26:22.316Z,2078.00
2024-02-29T11:27:22.341Z,2070.00
2024-02-29T11:28:22.412Z,2086.00
2024-02-29T11:29:22.394Z,2074.00
2024-02-29T11:30:22.658Z,2097.00
2024-02-29T11:31:22.518Z,2080.00
2024-02-29T11:32:22.468Z,2091.00
2024-02-29T11:33:22.595Z,2097.00
2024-02-29T11:34:22.662Z,2089.00
2024-02-29T11:35:22.622Z,2106.00
2024-02-29T11:36:22.575Z,2104.00
2024-02-29T11:37:24.884Z,2106.00
2024-02-29T11:38:29.147Z,2107.00
2024-02-29T11:39:23.626Z,2107.00
2024-02-29T11:40:22.680Z,2112.00
2024-02-29T11:41:22.620Z,2115.00
2024-02-29T11:42:22.607Z,2126.00
2024-02-29T11:43:24.881Z,2090.00
2024-02-29T11:44:22.606Z,1900.00
2024-02-29T11:45:22.813Z,1761.00
2024-02-29T11:46:22.670Z,1662.00
2024-02-29T11:47:22.618Z,1537.00
2024-02-29T11:48:22.623Z,1396.00
2024-02-29T11:49:22.737Z,1288.00
2024-02-29T11:50:22.616Z,1187.00
2024-02-29T11:51:22.646Z,1073.00
2024-02-29T11:52:22.657Z,964.00
2024-02-29T11:53:22.624Z,878.00
2024-02-29T11:54:24.191Z,791.00
2024-02-29T11:55:22.805Z,761.00
2024-02-29T11:56:22.638Z,684.00
2024-02-29T11:57:22.651Z,650.00
2024-02-29T11:58:22.673Z,625.00
2024-02-29T11:59:22.729Z,598.00
2024-02-29T12:00:22.621Z,602.00
2024-02-29T12:01:22.677Z,600.00
2024-02-29T12:02:22.643Z,600.00
2024-02-29T12:03:23.668Z,599.00
2024-02-29T12:04:22.824Z,611.00
2024-02-29T12:05:22.685Z,661.00
2024-02-29T12:06:22.625Z,716.00
2024-02-29T12:07:22.698Z,760.00
2024-02-29T12:08:22.694Z,807.00
2024-02-29T12:09:22.640Z,823.00
2024-02-29T12:10:22.768Z,840.00
2024-02-29T12:11:22.690Z,855.00
2024-02-29T12:12:22.645Z,861.00
2024-02-29T12:13:22.713Z,868.00
2024-02-29T12:14:22.648Z,880.00
2024-02-29T12:15:22.683Z,881.00
2024-02-29T12:16:22.703Z,880.00
2024-02-29T12:17:22.664Z,896.00
2024-02-29T12:18:22.681Z,906.00
2024-02-29T12:19:22.735Z,903.00
2024-02-29T12:20:22.654Z,911.00
2024-02-29T12:21:28.639Z,922.00
2024-02-29T12:22:23.779Z,923.00